createdAt,value
2019-05-11T00:02:19.187Z,1.40
2019-05-11T00:04:49.781Z,1.60
2019-05-11T00:07:20.329Z,1.20
2019-05-11T00:09:57.975Z,1.40
2019-05-11T00:12:23.078Z,1.50
2019-05-11T00:14:53.567Z,1.23
2019-05-11T00:17:23.986Z,1.40
2019-05-11T00:19:54.471Z,1.70
2019-05-11T00:22:24.946Z,1.70
2019-05-11T00:24:55.339Z,1.70
2019-05-11T00:27:25.766Z,1.60
2019-05-11T00:29:56.247Z,1.53
2019-05-11T00:32:26.705Z,1.37
2019-05-11T00:34:57.114Z,1.40
2019-05-11T00:37:27.533Z,1.80
2019-05-11T00:40:12.879Z,1.10
2019-05-11T00:42:30.066Z,1.57
2019-05-11T00:45:00.491Z,1.93
2019-05-11T00:47:30.901Z,1.90
2019-05-11T00:50:01.295Z,1.60
2019-05-11T00:52:31.687Z,1.50
2019-05-11T00:55:02.080Z,1.40
2019-05-11T00:57:32.531Z,1.43
2019-05-11T01:00:02.923Z,1.30
2019-05-11T01:02:33.311Z,1.37
2019-05-11T01:05:03.713Z,1.20
2019-05-11T01:07:34.218Z,1.60
2019-05-11T01:10:04.916Z,1.33
2019-05-11T01:12:35.310Z,1.50
2019-05-11T01:15:06.101Z,1.77
2019-05-11T01:17:36.505Z,1.37
2019-05-11T01:20:07.938Z,1.90
2019-05-11T01:22:38.360Z,1.60
2019-05-11T01:25:08.858Z,1.40
2019-05-11T01:27:39.290Z,1.50
2019-05-11T01:30:12.235Z,1.50
2019-05-11T01:32:42.707Z,1.30
2019-05-11T01:35:13.498Z,1.30
2019-05-11T01:37:43.959Z,1.60
2019-05-11T01:40:14.766Z,1.80
2019-05-11T01:42:45.253Z,1.40
2019-05-11T01:45:15.929Z,1.33
2019-05-11T01:47:46.346Z,1.50
2019-05-11T01:50:16.706Z,1.53
2019-05-11T01:52:47.126Z,1.60
2019-05-11T01:55:17.513Z,1.40
2019-05-11T01:57:47.999Z,1.37
2019-05-11T02:00:18.861Z,1.20
2019-05-11T02:02:49.251Z,1.30
2019-05-11T02:05:29.175Z,1.40
2019-05-11T02:08:00.603Z,1.40
2019-05-11T02:10:31.276Z,1.30
2019-05-11T02:13:01.675Z,1.20
2019-05-11T02:15:32.041Z,1.07
2019-05-11T02:18:02.450Z,1.17
2019-05-11T02:20:32.843Z,0.97
2019-05-11T02:23:03.318Z,1.60
2019-05-11T02:25:33.686Z,1.10
2019-05-11T02:28:04.108Z,1.13
2019-05-11T02:30:34.573Z,1.20
2019-05-11T02:33:04.960Z,1.13
2019-05-11T02:35:35.334Z,1.23
2019-05-11T02:38:05.746Z,1.53
2019-05-11T02:40:36.142Z,1.27
2019-05-11T02:43:06.565Z,1.30
2019-05-11T02:45:39.816Z,1.90
2019-05-11T02:48:10.514Z,1.32
2019-05-11T02:50:40.893Z,1.37
2019-05-11T02:53:11.454Z,1.40
2019-05-11T02:55:41.834Z,1.20
2019-05-11T02:58:12.258Z,1.25
2019-05-11T03:00:45.285Z,1.30
2019-05-11T03:03:15.753Z,1.42
2019-05-11T03:05:46.165Z,1.22
2019-05-11T03:08:16.626Z,1.40
2019-05-11T03:10:46.999Z,1.60
2019-05-11T03:13:17.407Z,1.30
2019-05-11T03:15:47.789Z,1.40
2019-05-11T03:18:18.230Z,1.30
2019-05-11T03:20:48.596Z,1.32
2019-05-11T03:23:19.057Z,1.30
2019-05-11T03:25:49.439Z,1.40
2019-05-11T03:28:19.833Z,1.20
2019-05-11T03:30:50.237Z,1.20
2019-05-11T03:33:20.799Z,2.07
2019-05-11T03:35:51.165Z,1.37
2019-05-11T03:38:21.566Z,1.67
2019-05-11T03:40:51.999Z,1.23
2019-05-11T03:43:22.394Z,1.60
2019-05-11T03:45:52.787Z,1.40
2019-05-11T03:48:23.194Z,1.87
2019-05-11T03:50:53.589Z,1.40
2019-05-11T03:53:23.976Z,1.35
2019-05-11T03:55:54.397Z,1.98
2019-05-11T03:58:26.589Z,1.32
2019-05-11T04:00:57.344Z,1.60
2019-05-11T04:03:27.784Z,1.63
2019-05-11T04:05:58.192Z,1.35
2019-05-11T04:08:28.610Z,1.30
2019-05-11T04:10:59.015Z,1.40
2019-05-11T04:13:29.387Z,1.10
2019-05-11T04:15:59.773Z,1.30
2019-05-11T04:18:30.142Z,1.30
2019-05-11T04:21:00.543Z,1.42
2019-05-11T04:23:30.923Z,1.40
2019-05-11T04:26:01.394Z,1.60
2019-05-11T04:28:31.838Z,1.10
2019-05-11T04:31:02.233Z,1.43
2019-05-11T04:33:33.298Z,1.27
2019-05-11T04:36:03.940Z,1.40
2019-05-11T04:38:34.420Z,1.80
2019-05-11T04:41:04.812Z,1.20
2019-05-11T04:43:35.186Z,1.20
2019-05-11T04:46:05.594Z,1.17
2019-05-11T04:48:35.981Z,1.33
2019-05-11T04:51:06.676Z,1.20
2019-05-11T04:53:37.047Z,1.20
2019-05-11T04:56:07.546Z,1.13
2019-05-11T04:58:37.921Z,1.87
2019-05-11T05:01:08.338Z,1.30
2019-05-11T05:03:41.120Z,1.10
2019-05-11T05:06:21.765Z,1.23
2019-05-11T05:08:42.931Z,1.20
2019-05-11T05:11:13.350Z,1.50
2019-05-11T05:13:43.722Z,1.30
2019-05-11T05:16:14.161Z,1.20
2019-05-11T05:18:44.607Z,1.53
2019-05-11T05:21:15.135Z,1.30
2019-05-11T05:23:45.541Z,1.15
2019-05-11T05:26:15.951Z,1.53
2019-05-11T05:28:46.361Z,1.30
2019-05-11T05:31:16.769Z,1.37
2019-05-11T05:33:47.231Z,1.23
2019-05-11T05:36:17.643Z,1.17
2019-05-11T05:38:48.050Z,1.40
2019-05-11T05:41:18.462Z,1.10
2019-05-11T05:43:48.842Z,1.10
2019-05-11T05:46:19.338Z,1.23
2019-05-11T05:48:49.716Z,1.17
2019-05-11T05:51:20.126Z,1.40
2019-05-11T05:53:50.490Z,1.30
2019-05-11T05:56:20.892Z,2.30
2019-05-11T05:58:51.278Z,1.33
2019-05-11T06:01:21.686Z,1.30
2019-05-11T06:03:52.067Z,1.23
2019-05-11T06:06:22.480Z,1.13
2019-05-11T06:08:52.847Z,1.30
2019-05-11T06:11:23.240Z,1.13
2019-05-11T06:13:53.630Z,1.67
2019-05-11T06:16:24.062Z,1.10
2019-05-11T06:18:54.419Z,1.20
2019-05-11T06:21:24.839Z,1.40
2019-05-11T06:23:55.215Z,1.37
2019-05-11T06:26:25.687Z,1.30
2019-05-11T06:28:56.121Z,1.47
2019-05-11T06:31:26.530Z,1.30
2019-05-11T06:33:56.944Z,1.33
2019-05-11T06:36:27.351Z,1.50
2019-05-11T06:38:57.717Z,1.27
2019-05-11T06:41:28.232Z,1.40
2019-05-11T06:44:01.834Z,1.10
2019-05-11T06:46:30.747Z,1.33
2019-05-11T06:49:01.216Z,1.17
2019-05-11T06:51:31.606Z,1.70
2019-05-11T06:54:02.029Z,1.30
2019-05-11T06:56:32.495Z,1.20
2019-05-11T06:59:02.992Z,1.20
2019-05-11T07:01:33.465Z,1.00
2019-05-11T07:04:03.970Z,0.93
2019-05-11T07:06:34.467Z,0.90
2019-05-11T07:09:06.407Z,1.13
2019-05-11T07:11:36.950Z,1.00
2019-05-11T07:14:20.015Z,1.13
2019-05-11T07:16:39.851Z,1.10
2019-05-11T07:19:10.260Z,1.17
2019-05-11T07:21:40.677Z,1.20
2019-05-11T07:24:11.088Z,1.10
2019-05-11T07:26:41.500Z,1.50
2019-05-11T07:29:11.899Z,1.10
2019-05-11T07:31:42.297Z,1.20
2019-05-11T07:34:12.690Z,1.00
2019-05-11T07:36:43.102Z,1.00
2019-05-11T07:39:13.564Z,0.90
2019-05-11T07:41:44.012Z,0.90
2019-05-11T07:44:14.396Z,1.07
2019-05-11T07:46:44.794Z,0.90
2019-05-11T07:49:15.172Z,0.77
2019-05-11T07:51:47.999Z,0.83
2019-05-11T07:54:18.719Z,1.00
2019-05-11T07:56:49.332Z,0.90
2019-05-11T07:59:19.779Z,0.80
2019-05-11T08:01:50.188Z,0.90
2019-05-11T08:04:20.544Z,0.87
2019-05-11T08:06:50.955Z,1.10
2019-05-11T08:09:21.350Z,1.07
2019-05-11T08:11:51.750Z,0.80
2019-05-11T08:14:22.189Z,0.80
2019-05-11T08:16:52.635Z,0.90
2019-05-11T08:19:23.026Z,0.80
2019-05-11T08:21:53.406Z,1.00
2019-05-11T08:24:23.811Z,0.70
2019-05-11T08:26:54.199Z,1.17
2019-05-11T08:29:24.599Z,0.90
2019-05-11T08:31:55.047Z,0.70
2019-05-11T08:34:25.470Z,0.97
2019-05-11T08:36:58.208Z,1.10
2019-05-11T08:39:28.816Z,0.70
2019-05-11T08:42:02.758Z,1.23
2019-05-11T08:44:31.650Z,0.80
2019-05-11T08:47:02.045Z,0.67
2019-05-11T08:49:32.449Z,1.00
2019-05-11T08:52:02.848Z,0.83
2019-05-11T08:54:33.331Z,1.10
2019-05-11T08:57:03.678Z,0.73
2019-05-11T08:59:34.099Z,0.90
2019-05-11T09:02:04.486Z,0.90
2019-05-11T09:04:39.251Z,0.70
2019-05-11T09:07:07.909Z,0.90
2019-05-11T09:09:38.442Z,0.80
2019-05-11T09:12:08.855Z,0.90
2019-05-11T09:14:39.293Z,0.60
2019-05-11T09:17:09.675Z,0.93
2019-05-11T09:19:40.099Z,0.70
2019-05-11T09:22:10.487Z,0.70
2019-05-11T09:24:40.885Z,1.00
2019-05-11T09:27:11.313Z,0.80
2019-05-11T09:29:41.776Z,0.70
2019-05-11T09:32:12.210Z,0.60
2019-05-11T09:34:42.626Z,0.60
2019-05-11T09:37:13.017Z,0.50
2019-05-11T09:39:43.446Z,0.60
2019-05-11T09:42:13.831Z,0.60
2019-05-11T09:44:44.246Z,0.60
2019-05-11T09:47:14.625Z,0.53
2019-05-11T09:49:48.619Z,0.67
2019-05-11T09:52:18.346Z,0.60
2019-05-11T09:54:48.957Z,0.50
2019-05-11T09:57:19.360Z,0.50
2019-05-11T09:59:49.768Z,0.50
2019-05-11T10:02:21.158Z,0.47
2019-05-11T10:04:51.750Z,0.60
2019-05-11T10:07:22.185Z,0.50
2019-05-11T10:09:52.644Z,0.50
2019-05-11T10:12:23.093Z,0.40
2019-05-11T10:14:53.501Z,0.50
2019-05-11T10:17:23.876Z,0.50
2019-05-11T10:19:54.406Z,0.50
2019-05-11T10:22:24.806Z,0.50
2019-05-11T10:24:55.274Z,0.50
2019-05-11T10:27:27.880Z,0.40
2019-05-11T10:29:58.955Z,0.77
2019-05-11T10:32:29.495Z,0.50
2019-05-11T10:34:59.903Z,0.50
2019-05-11T10:37:30.349Z,0.50
2019-05-11T10:40:00.748Z,0.50
2019-05-11T10:42:31.145Z,0.57
2019-05-11T10:45:01.582Z,0.40
2019-05-11T10:47:31.962Z,0.80
2019-05-11T10:50:02.382Z,0.50
2019-05-11T10:52:32.781Z,0.50
2019-05-11T10:55:03.358Z,0.60
2019-05-11T10:57:33.772Z,0.67
2019-05-11T11:00:04.885Z,0.70
2019-05-11T11:02:35.257Z,0.50
2019-05-11T11:05:08.057Z,0.70
2019-05-11T11:07:38.782Z,0.60
2019-05-11T11:10:09.499Z,0.60
2019-05-11T11:12:39.892Z,0.47
2019-05-11T11:15:10.897Z,0.70
2019-05-11T11:17:41.284Z,0.70
2019-05-11T11:20:12.493Z,0.50
2019-05-11T11:22:44.291Z,0.50
2019-05-11T11:25:15.286Z,0.50
2019-05-11T11:27:45.662Z,0.50
2019-05-11T11:30:18.114Z,0.60
2019-05-11T11:32:48.520Z,0.60
2019-05-11T11:35:19.051Z,0.50
2019-05-11T11:37:49.456Z,0.53
2019-05-11T11:40:19.969Z,4.30
2019-05-11T11:42:50.396Z,0.83
2019-05-11T11:45:20.907Z,0.60
2019-05-11T11:47:51.303Z,0.60
2019-05-11T11:50:21.803Z,0.50
2019-05-11T11:52:52.185Z,0.60
2019-05-11T11:55:22.589Z,0.73
2019-05-11T11:57:52.989Z,0.57
2019-05-11T12:00:23.381Z,0.70
2019-05-11T12:02:53.789Z,0.60
2019-05-11T12:05:24.170Z,0.60
2019-05-11T12:07:54.535Z,0.50
2019-05-11T12:10:25.008Z,0.60
2019-05-11T12:12:55.451Z,0.50
2019-05-11T12:15:28.056Z,0.60
2019-05-11T12:17:58.774Z,0.57
2019-05-11T12:20:29.357Z,0.50
2019-05-11T12:22:59.743Z,0.50
2019-05-11T12:25:30.190Z,0.50
2019-05-11T12:28:00.645Z,0.60
2019-05-11T12:30:31.055Z,0.50
2019-05-11T12:33:01.513Z,0.40
2019-05-11T12:35:31.965Z,0.50
2019-05-11T12:38:02.379Z,0.40
2019-05-11T12:40:32.789Z,0.60
2019-05-11T12:43:03.270Z,0.50
2019-05-11T12:45:37.495Z,0.40
2019-05-11T12:48:08.984Z,0.50
2019-05-11T12:50:39.407Z,0.60
2019-05-11T12:53:09.771Z,0.50
2019-05-11T12:55:40.232Z,0.83
2019-05-11T12:58:10.643Z,0.80
2019-05-11T13:00:41.062Z,1.00
2019-05-11T13:03:11.477Z,0.60
2019-05-11T13:05:42.086Z,0.60
2019-05-11T13:08:12.480Z,0.80
2019-05-11T13:10:42.895Z,0.60
2019-05-11T13:13:13.261Z,0.67
2019-05-11T13:15:43.693Z,0.70
2019-05-11T13:18:14.054Z,0.73
2019-05-11T13:20:44.482Z,0.50
2019-05-11T13:23:14.900Z,0.50
2019-05-11T13:25:45.371Z,0.60
2019-05-11T13:28:18.844Z,0.43
2019-05-11T13:30:49.249Z,0.50
2019-05-11T13:33:19.656Z,0.50
2019-05-11T13:35:50.060Z,0.60
2019-05-11T13:38:20.437Z,0.50
2019-05-11T13:40:50.801Z,0.63
2019-05-11T13:43:21.192Z,0.60
2019-05-11T13:45:51.588Z,0.50
2019-05-11T13:48:22.027Z,0.63
2019-05-11T13:50:52.430Z,0.60
2019-05-11T13:53:22.855Z,0.60
2019-05-11T13:55:53.298Z,0.70
2019-05-11T13:58:23.708Z,0.80
2019-05-11T14:00:54.109Z,0.90
2019-05-11T14:03:24.493Z,0.90
2019-05-11T14:05:54.924Z,0.60
2019-05-11T14:08:27.639Z,0.50
2019-05-11T14:10:58.016Z,0.70
2019-05-11T14:13:28.753Z,0.53
2019-05-11T14:15:59.209Z,0.60
2019-05-11T14:18:29.594Z,0.60
2019-05-11T14:20:59.998Z,1.83
2019-05-11T14:23:31.383Z,0.70
2019-05-11T14:26:02.050Z,0.50
2019-05-11T14:28:32.531Z,0.50
2019-05-11T14:31:02.988Z,0.60
2019-05-11T14:33:33.456Z,0.50
2019-05-11T14:36:04.070Z,0.60
2019-05-11T14:38:34.841Z,0.60
2019-05-11T14:41:07.567Z,0.80
2019-05-11T14:43:38.350Z,0.60
2019-05-11T14:46:08.940Z,0.50
2019-05-11T14:48:39.353Z,0.40
2019-05-11T14:51:09.860Z,0.53
2019-05-11T14:53:40.499Z,0.50
2019-05-11T14:56:10.856Z,0.50
2019-05-11T14:58:41.233Z,0.40
2019-05-11T15:01:14.612Z,0.40
2019-05-11T15:03:43.720Z,0.60
2019-05-11T15:06:14.138Z,0.47
2019-05-11T15:08:44.513Z,0.43
2019-05-11T15:11:14.946Z,0.40
2019-05-11T15:13:45.357Z,0.50
2019-05-11T15:16:15.755Z,0.80
2019-05-11T15:18:48.258Z,0.70
2019-05-11T15:21:18.930Z,0.50
2019-05-11T15:23:49.651Z,0.73
2019-05-11T15:26:20.034Z,0.57
2019-05-11T15:28:50.458Z,0.80
2019-05-11T15:31:22.446Z,0.60
2019-05-11T15:33:53.055Z,0.50
2019-05-11T15:36:23.462Z,0.50
2019-05-11T15:38:53.837Z,1.50
2019-05-11T15:41:24.306Z,1.27
2019-05-11T15:43:54.735Z,0.70
2019-05-11T15:46:25.067Z,0.60
2019-05-11T15:49:00.570Z,1.27
2019-05-11T15:51:29.130Z,0.60
2019-05-11T15:54:00.063Z,0.50
2019-05-11T15:56:30.493Z,0.63
2019-05-11T15:59:00.919Z,0.60
2019-05-11T16:01:31.310Z,0.70
2019-05-11T16:04:01.723Z,0.50
2019-05-11T16:06:32.102Z,0.57
2019-05-11T16:09:02.600Z,0.60
2019-05-11T16:11:32.958Z,0.50
2019-05-11T16:14:03.366Z,0.50
2019-05-11T16:16:33.939Z,0.60
2019-05-11T16:19:13.645Z,0.60
2019-05-11T16:21:38.166Z,0.73
2019-05-11T16:24:08.587Z,0.60
2019-05-11T16:26:38.969Z,0.60
2019-05-11T16:29:11.488Z,0.60
2019-05-11T16:31:41.389Z,0.60
2019-05-11T16:34:11.827Z,0.50
2019-05-11T16:36:42.235Z,0.60
2019-05-11T16:39:12.637Z,0.70
2019-05-11T16:41:43.151Z,0.60
2019-05-11T16:44:13.535Z,0.90
2019-05-11T16:46:43.898Z,0.60
2019-05-11T16:49:27.921Z,0.70
2019-05-11T16:51:46.433Z,0.87
2019-05-11T16:54:16.825Z,0.90
2019-05-11T16:56:48.643Z,1.33
2019-05-11T16:59:19.194Z,1.10
2019-05-11T17:01:49.549Z,1.30
2019-05-11T17:04:19.959Z,1.50
2019-05-11T17:06:50.362Z,2.77
2019-05-11T17:09:20.777Z,2.53
2019-05-11T17:11:51.173Z,1.80
2019-05-11T17:14:21.632Z,3.20
2019-05-11T17:16:52.023Z,3.10
2019-05-11T17:19:22.427Z,2.90
2019-05-11T17:21:52.847Z,3.20
2019-05-11T17:24:23.324Z,3.20
2019-05-11T17:26:53.709Z,3.60
2019-05-11T17:29:24.120Z,3.17
2019-05-11T17:31:54.575Z,3.13
2019-05-11T17:34:25.021Z,3.80
2019-05-11T17:36:57.827Z,3.37
2019-05-11T17:39:28.186Z,4.10
2019-05-11T17:41:58.749Z,4.30
2019-05-11T17:44:29.224Z,4.10
2019-05-11T17:46:59.593Z,3.73
2019-05-11T17:49:29.996Z,4.13
2019-05-11T17:52:00.432Z,3.27
2019-05-11T17:54:30.822Z,3.50
2019-05-11T17:57:01.533Z,3.07
2019-05-11T17:59:32.017Z,3.83
2019-05-11T18:02:02.446Z,3.10
2019-05-11T18:04:32.859Z,3.10
2019-05-11T18:07:03.290Z,3.07
2019-05-11T18:09:33.705Z,3.10
2019-05-11T18:12:04.444Z,2.70
2019-05-11T18:14:36.156Z,3.83
2019-05-11T18:17:09.637Z,2.67
2019-05-11T18:19:39.171Z,3.20
2019-05-11T18:22:09.576Z,2.40
2019-05-11T18:24:40.039Z,2.90
2019-05-11T18:27:10.461Z,2.53
2019-05-11T18:29:40.863Z,2.40
2019-05-11T18:32:11.250Z,2.58
2019-05-11T18:34:41.686Z,2.30
2019-05-11T18:37:12.075Z,3.27
2019-05-11T18:39:42.605Z,3.43
2019-05-11T18:42:13.206Z,2.62
2019-05-11T18:44:43.675Z,2.80
2019-05-11T18:47:14.092Z,2.42
2019-05-11T18:49:44.514Z,2.60
2019-05-11T18:52:14.935Z,2.40
2019-05-11T18:54:47.335Z,2.20
2019-05-11T18:57:18.760Z,3.00
2019-05-11T18:59:49.312Z,2.80
2019-05-11T19:02:19.678Z,2.70
2019-05-11T19:04:50.203Z,2.85
2019-05-11T19:07:20.751Z,3.50
2019-05-11T19:09:51.185Z,3.22
2019-05-11T19:12:21.562Z,3.57
2019-05-11T19:14:52.003Z,3.15
2019-05-11T19:17:23.952Z,2.58
2019-05-11T19:19:54.389Z,3.45
2019-05-11T19:22:24.770Z,3.22
2019-05-11T19:24:55.249Z,3.60
2019-05-11T19:27:25.605Z,3.37
2019-05-11T19:29:56.025Z,4.08
2019-05-11T19:32:28.246Z,3.80
2019-05-11T19:35:00.897Z,4.08
2019-05-11T19:37:31.374Z,4.65
2019-05-11T19:40:01.783Z,3.52
2019-05-11T19:42:32.203Z,4.70
2019-05-11T19:45:02.656Z,4.05
2019-05-11T19:47:33.040Z,3.80
2019-05-11T19:50:03.484Z,5.05
2019-05-11T19:52:33.877Z,4.05
2019-05-11T19:55:04.630Z,4.33
2019-05-11T19:57:35.019Z,4.05
2019-05-11T20:00:07.900Z,3.90
2019-05-11T20:02:39.034Z,4.25
2019-05-11T20:05:09.800Z,4.25
2019-05-11T20:07:40.259Z,4.37
2019-05-11T20:10:10.783Z,4.60
2019-05-11T20:12:41.899Z,3.72
2019-05-11T20:15:12.533Z,3.92
2019-05-11T20:17:42.957Z,3.87
2019-05-11T20:20:13.507Z,3.70
2019-05-11T20:22:43.937Z,4.62
2019-05-11T20:25:14.335Z,3.60
2019-05-11T20:27:44.810Z,3.50
2019-05-11T20:30:15.281Z,4.05
2019-05-11T20:32:48.188Z,3.25
2019-05-11T20:35:17.766Z,3.95
2019-05-11T20:37:48.218Z,4.15
2019-05-11T20:40:18.653Z,3.42
2019-05-11T20:42:49.085Z,4.00
2019-05-11T20:45:19.557Z,3.90
2019-05-11T20:47:49.974Z,4.40
2019-05-11T20:50:20.361Z,3.45
2019-05-11T20:52:50.773Z,3.05
2019-05-11T20:55:21.117Z,2.98
2019-05-11T20:57:51.579Z,3.50
2019-05-11T21:00:22.048Z,3.20
2019-05-11T21:02:52.455Z,3.67
2019-05-11T21:05:22.858Z,3.90
2019-05-11T21:07:53.278Z,3.90
2019-05-11T21:10:23.675Z,3.45
2019-05-11T21:12:54.165Z,3.05
2019-05-11T21:15:24.532Z,3.50
2019-05-11T21:17:55.031Z,3.25
2019-05-11T21:20:25.407Z,3.52
2019-05-11T21:22:57.824Z,2.92
2019-05-11T21:25:28.764Z,3.47
2019-05-11T21:27:59.492Z,3.08
2019-05-11T21:30:29.942Z,3.17
2019-05-11T21:33:00.583Z,2.75
2019-05-11T21:35:31.206Z,2.58
2019-05-11T21:38:01.599Z,2.90
2019-05-11T21:40:32.034Z,3.37
2019-05-11T21:43:02.458Z,2.50
2019-05-11T21:45:32.861Z,3.30
2019-05-11T21:48:03.307Z,3.35
2019-05-11T21:50:33.697Z,2.80
2019-05-11T21:53:04.107Z,2.70
2019-05-11T21:55:34.473Z,3.08
2019-05-11T21:58:04.850Z,2.70
2019-05-11T22:00:35.326Z,3.08
2019-05-11T22:03:10.007Z,3.10
2019-05-11T22:05:38.226Z,3.22
2019-05-11T22:08:08.764Z,3.25
2019-05-11T22:10:39.225Z,3.90
2019-05-11T22:13:09.616Z,3.45
2019-05-11T22:15:39.973Z,3.35
2019-05-11T22:18:10.431Z,3.58
2019-05-11T22:20:41.092Z,3.83
2019-05-11T22:23:11.897Z,4.22
2019-05-11T22:25:42.279Z,3.70
2019-05-11T22:28:12.680Z,4.22
2019-05-11T22:30:43.076Z,4.92
2019-05-11T22:33:14.779Z,4.40
2019-05-11T22:35:45.162Z,5.10
2019-05-11T22:38:15.562Z,4.35
2019-05-11T22:40:45.953Z,4.60
2019-05-11T22:43:18.173Z,4.87
2019-05-11T22:45:48.663Z,3.75
2019-05-11T22:48:19.118Z,5.47
2019-05-11T22:50:50.637Z,5.42
2019-05-11T22:53:21.261Z,4.85
2019-05-11T22:55:51.662Z,5.30
2019-05-11T22:58:22.045Z,6.37
2019-05-11T23:00:52.453Z,4.70
2019-05-11T23:03:23.053Z,5.42
2019-05-11T23:05:53.503Z,5.65
2019-05-11T23:08:23.908Z,4.70
2019-05-11T23:10:54.264Z,5.05
2019-05-11T23:13:24.645Z,5.53
2019-05-11T23:15:55.294Z,4.53
2019-05-11T23:18:25.712Z,4.80
2019-05-11T23:20:58.212Z,4.22
2019-05-11T23:23:28.544Z,4.55
2019-05-11T23:25:58.898Z,4.58
2019-05-11T23:28:29.300Z,3.90
2019-05-11T23:30:59.633Z,4.87
2019-05-11T23:33:30.012Z,5.17
2019-05-11T23:36:00.370Z,4.37
2019-05-11T23:38:30.734Z,5.05
2019-05-11T23:41:01.458Z,5.00
2019-05-11T23:43:31.814Z,4.55
2019-05-11T23:46:02.223Z,4.05
2019-05-11T23:48:32.580Z,4.62
2019-05-11T23:51:02.957Z,4.80
2019-05-11T23:53:33.313Z,5.50
2019-05-11T23:56:03.803Z,4.50
2019-05-11T23:58:34.198Z,4.92
